createdAt,value
2022-12-11T00:00:10.249Z,75.68
2022-12-11T00:05:11.640Z,76.35
2022-12-11T00:10:13.062Z,76.69
2022-12-11T00:15:14.319Z,76.06
2022-12-11T00:20:16.186Z,76.07
2022-12-11T00:25:17.454Z,74.76
2022-12-11T00:30:18.685Z,74.99
2022-12-11T00:35:20.106Z,74.24
2022-12-11T00:40:21.358Z,73.75
2022-12-11T00:45:22.647Z,73.28
2022-12-11T00:50:23.880Z,74.69
2022-12-11T00:55:27.962Z,75.30
2022-12-11T01:00:29.189Z,74.74
2022-12-11T01:05:30.393Z,74.07
2022-12-11T01:10:31.682Z,74.30
2022-12-11T01:15:33.650Z,73.86
2022-12-11T01:20:36.741Z,74.58
2022-12-11T01:25:40.974Z,73.94
2022-12-11T01:30:42.673Z,74.09
2022-12-11T01:35:43.990Z,73.77
2022-12-11T01:40:51.217Z,72.03
2022-12-11T01:45:52.615Z,71.55
2022-12-11T01:50:53.904Z,71.96
2022-12-11T01:55:55.098Z,71.46
2022-12-11T02:00:56.379Z,71.13
2022-12-11T02:05:57.702Z,72.17
2022-12-11T02:10:59.032Z,72.33
2022-12-11T02:16:00.404Z,74.14
2022-12-11T02:21:01.695Z,72.97
2022-12-11T02:26:04.025Z,73.17
2022-12-11T02:31:05.329Z,73.61
2022-12-11T02:36:06.630Z,72.80
2022-12-11T02:41:08.178Z,72.68
2022-12-11T02:46:09.581Z,72.24
2022-12-11T02:51:10.844Z,72.10
2022-12-11T02:56:12.126Z,72.83
2022-12-11T03:01:13.404Z,72.33
2022-12-11T03:06:14.713Z,72.10
2022-12-11T03:11:15.968Z,71.76
2022-12-11T03:16:17.279Z,71.06
2022-12-11T03:21:18.585Z,71.82
2022-12-11T03:26:19.851Z,71.22
2022-12-11T03:31:21.083Z,71.28
2022-12-11T03:36:22.295Z,71.21
2022-12-11T03:41:23.549Z,70.32
2022-12-11T03:46:24.875Z,71.51
2022-12-11T03:51:26.101Z,72.63
2022-12-11T03:56:27.604Z,72.66
2022-12-11T04:01:28.864Z,71.92
2022-12-11T04:06:30.161Z,71.56
2022-12-11T04:11:34.496Z,70.32
2022-12-11T04:16:35.757Z,70.22
2022-12-11T04:21:56.023Z,70.71
2022-12-11T04:26:57.219Z,73.42
2022-12-11T04:31:58.501Z,74.61
2022-12-11T04:36:59.782Z,76.46
2022-12-11T04:42:01.081Z,77.92
2022-12-11T04:47:02.337Z,78.74
2022-12-11T04:52:04.128Z,78.90
2022-12-11T04:57:05.373Z,79.49
2022-12-11T05:02:06.607Z,80.74
2022-12-11T05:07:09.334Z,80.66
2022-12-11T05:12:10.548Z,80.56
2022-12-11T05:17:11.801Z,80.21
2022-12-11T05:22:13.058Z,80.47
2022-12-11T05:27:14.330Z,80.34
2022-12-11T05:32:15.581Z,80.78
2022-12-11T05:37:16.864Z,80.92
2022-12-11T05:42:18.213Z,81.70
2022-12-11T05:47:20.908Z,81.57
2022-12-11T05:52:22.174Z,80.66
2022-12-11T05:57:23.405Z,80.96
2022-12-11T06:02:24.809Z,80.56
2022-12-11T06:07:26.107Z,81.00
2022-12-11T06:12:28.402Z,80.94
2022-12-11T06:17:29.866Z,81.32
2022-12-11T06:22:31.097Z,81.40
2022-12-11T06:27:32.338Z,82.00
2022-12-11T06:32:33.598Z,82.43
2022-12-11T06:37:34.883Z,82.29
2022-12-11T06:42:36.146Z,82.09
2022-12-11T06:47:37.421Z,81.14
2022-12-11T06:52:38.671Z,81.43
2022-12-11T06:57:39.905Z,80.96
2022-12-11T07:02:41.234Z,81.22
2022-12-11T07:07:42.567Z,80.78
2022-12-11T07:12:43.831Z,78.55
2022-12-11T07:17:45.068Z,75.78
2022-12-11T07:22:46.962Z,73.69
2022-12-11T07:27:48.485Z,72.44
2022-12-11T07:32:49.761Z,72.46
2022-12-11T07:37:51.064Z,72.04
2022-12-11T07:42:52.280Z,71.17
2022-12-11T07:47:53.642Z,72.11
2022-12-11T07:52:54.912Z,72.52
2022-12-11T07:57:56.146Z,71.88
2022-12-11T08:02:57.393Z,72.09
2022-12-11T08:07:58.673Z,71.77
2022-12-11T08:13:00.190Z,72.01
2022-12-11T08:18:01.409Z,73.39
2022-12-11T08:23:02.645Z,73.15
2022-12-11T08:28:03.884Z,73.59
2022-12-11T08:33:05.274Z,74.43
2022-12-11T08:38:06.582Z,72.95
2022-12-11T08:43:07.859Z,72.96
2022-12-11T08:48:09.219Z,72.28
2022-12-11T08:53:10.656Z,73.46
2022-12-11T08:58:11.968Z,73.60
2022-12-11T09:03:13.421Z,73.84
2022-12-11T09:08:14.695Z,73.60
2022-12-11T09:13:16.113Z,73.88
2022-12-11T09:18:17.363Z,73.72
2022-12-11T09:23:18.634Z,73.48
2022-12-11T09:28:20.204Z,73.60
2022-12-11T09:33:21.497Z,73.68
2022-12-11T09:38:22.803Z,73.95
2022-12-11T09:43:24.151Z,73.99
2022-12-11T09:48:25.469Z,72.17
2022-12-11T09:53:29.771Z,73.11
2022-12-11T09:58:35.144Z,73.89
2022-12-11T10:03:36.425Z,72.54
2022-12-11T10:08:37.654Z,71.76
2022-12-11T10:13:38.904Z,69.22
2022-12-11T10:18:40.218Z,69.21
2022-12-11T10:23:41.479Z,70.58
2022-12-11T10:28:42.778Z,68.31
2022-12-11T10:33:44.077Z,70.13
2022-12-11T10:38:45.420Z,70.03
2022-12-11T10:43:46.714Z,67.61
2022-12-11T10:48:48.247Z,66.96
2022-12-11T10:53:49.588Z,67.14
2022-12-11T10:58:51.016Z,67.48
2022-12-11T11:03:52.911Z,67.59
2022-12-11T11:08:54.200Z,67.43
2022-12-11T11:13:55.546Z,68.01
2022-12-11T11:18:56.952Z,72.20
2022-12-11T11:23:58.171Z,68.48
2022-12-11T11:28:59.449Z,68.07
2022-12-11T11:34:00.961Z,65.64
2022-12-11T11:39:02.214Z,64.93
2022-12-11T11:44:03.481Z,64.21
2022-12-11T11:49:06.112Z,64.33
2022-12-11T11:54:07.314Z,63.14
2022-12-11T11:59:09.719Z,61.89
2022-12-11T12:04:11.009Z,62.17
2022-12-11T12:09:13.076Z,60.61
2022-12-11T12:14:43.607Z,60.15
2022-12-11T12:19:36.149Z,59.47
2022-12-11T12:24:37.469Z,59.59
2022-12-11T12:29:38.816Z,60.06
2022-12-11T12:34:40.153Z,60.24
2022-12-11T12:39:41.452Z,60.98
2022-12-11T12:44:43.117Z,59.86
2022-12-11T12:49:44.438Z,58.73
2022-12-11T12:55:05.635Z,58.39
2022-12-11T13:00:12.866Z,59.59
2022-12-11T13:05:15.654Z,60.52
2022-12-11T13:10:16.931Z,62.01
2022-12-11T13:15:18.166Z,63.34
2022-12-11T13:20:19.440Z,63.17
2022-12-11T13:25:21.044Z,62.88
2022-12-11T13:30:25.106Z,63.88
2022-12-11T13:35:26.584Z,63.27
2022-12-11T13:40:27.845Z,75.08
2022-12-11T13:45:29.280Z,62.62
2022-12-11T13:50:30.623Z,63.03
2022-12-11T13:55:31.833Z,65.62
2022-12-11T14:00:33.494Z,66.10
2022-12-11T14:05:34.808Z,66.72
2022-12-11T14:10:36.046Z,67.16
2022-12-11T14:15:38.362Z,68.85
2022-12-11T14:20:39.666Z,67.94
2022-12-11T14:25:40.919Z,67.52
2022-12-11T14:30:42.189Z,67.72
2022-12-11T14:35:43.549Z,66.98
2022-12-11T14:40:44.817Z,67.45
2022-12-11T14:45:46.331Z,67.68
2022-12-11T14:50:47.898Z,67.96
2022-12-11T14:55:49.374Z,67.39
2022-12-11T15:00:50.663Z,67.57
2022-12-11T15:05:51.980Z,66.55
2022-12-11T15:10:54.475Z,66.02
2022-12-11T15:15:55.815Z,64.29
2022-12-11T15:20:57.102Z,64.74
2022-12-11T15:25:58.395Z,63.33
2022-12-11T15:30:59.814Z,63.13
2022-12-11T15:36:01.213Z,64.08
2022-12-11T15:41:03.580Z,65.49
2022-12-11T15:46:04.904Z,64.57
2022-12-11T15:51:06.310Z,64.91
2022-12-11T15:56:07.567Z,64.22
2022-12-11T16:01:08.859Z,64.46
2022-12-11T16:06:10.131Z,64.03
2022-12-11T16:11:11.362Z,65.29
2022-12-11T16:16:12.626Z,65.93
2022-12-11T16:21:18.267Z,67.57
2022-12-11T16:26:22.521Z,66.46
2022-12-11T16:31:23.822Z,66.55
2022-12-11T16:36:25.192Z,66.25
2022-12-11T16:41:26.481Z,65.91
2022-12-11T16:46:27.915Z,66.10
2022-12-11T16:51:29.208Z,67.33
2022-12-11T16:56:30.612Z,67.10
2022-12-11T17:01:31.841Z,67.28
2022-12-11T17:06:33.104Z,66.39
2022-12-11T17:11:34.385Z,66.42
2022-12-11T17:16:35.704Z,66.73
2022-12-11T17:21:37.030Z,66.42
2022-12-11T17:26:38.370Z,66.19
2022-12-11T17:31:39.593Z,66.14
2022-12-11T17:36:40.855Z,66.19
2022-12-11T17:41:42.145Z,66.74
2022-12-11T17:46:43.466Z,66.76
2022-12-11T17:51:44.785Z,66.47
2022-12-11T17:56:46.055Z,67.63
2022-12-11T18:01:47.373Z,67.82
2022-12-11T18:06:48.689Z,67.36
2022-12-11T18:11:49.928Z,68.13
2022-12-11T18:16:52.510Z,68.10
2022-12-11T18:21:53.800Z,67.55
2022-12-11T18:26:55.037Z,67.33
2022-12-11T18:31:56.323Z,66.13
2022-12-11T18:36:57.646Z,66.18
2022-12-11T18:42:31.202Z,66.98
2022-12-11T18:47:20.084Z,68.06
2022-12-11T18:52:21.322Z,67.39
2022-12-11T18:57:22.532Z,68.55
2022-12-11T19:02:23.864Z,67.73
2022-12-11T19:07:25.146Z,67.83
2022-12-11T19:12:26.353Z,67.87
2022-12-11T19:17:27.742Z,68.69
2022-12-11T19:22:29.080Z,68.65
2022-12-11T19:27:30.282Z,68.25
2022-12-11T19:32:36.134Z,67.99
2022-12-11T19:37:38.010Z,68.11
2022-12-11T19:42:39.959Z,67.70
2022-12-11T19:47:41.377Z,69.03
2022-12-11T19:52:46.174Z,68.54
2022-12-11T19:57:47.888Z,67.22
2022-12-11T20:02:49.301Z,66.00
2022-12-11T20:07:50.589Z,64.63
2022-12-11T20:12:54.753Z,64.20
2022-12-11T20:17:56.058Z,64.01
2022-12-11T20:22:57.429Z,64.16
2022-12-11T20:27:58.854Z,64.15
2022-12-11T20:33:00.084Z,64.70
2022-12-11T20:38:01.422Z,64.94
2022-12-11T20:43:02.662Z,66.76
2022-12-11T20:48:04.043Z,66.67
2022-12-11T20:53:05.341Z,66.06
2022-12-11T20:58:06.955Z,66.33
2022-12-11T21:03:08.218Z,65.03
2022-12-11T21:08:09.593Z,65.58
2022-12-11T21:13:11.028Z,66.78
2022-12-11T21:18:12.264Z,68.11
2022-12-11T21:23:13.514Z,67.86
2022-12-11T21:28:14.827Z,67.98
2022-12-11T21:33:16.092Z,70.07
2022-12-11T21:38:17.416Z,70.67
2022-12-11T21:43:18.680Z,71.29
2022-12-11T21:48:19.991Z,71.20
2022-12-11T21:53:21.253Z,70.35
2022-12-11T21:58:22.527Z,69.06
2022-12-11T22:03:23.784Z,68.50
2022-12-11T22:08:25.042Z,69.55
2022-12-11T22:13:26.276Z,70.09
2022-12-11T22:18:28.025Z,71.27
2022-12-11T22:23:29.283Z,71.49
2022-12-11T22:28:30.549Z,69.68
2022-12-11T22:33:32.055Z,70.64
2022-12-11T22:38:42.400Z,68.32
2022-12-11T22:43:44.543Z,68.46
2022-12-11T22:48:49.055Z,70.19
2022-12-11T22:53:50.550Z,70.63
2022-12-11T22:58:54.137Z,70.34
2022-12-11T23:03:55.752Z,69.99
2022-12-11T23:08:57.058Z,70.27
2022-12-11T23:13:58.401Z,71.34
2022-12-11T23:18:59.645Z,71.88
2022-12-11T23:24:01.021Z,73.09
2022-12-11T23:29:02.439Z,72.87
2022-12-11T23:34:03.690Z,73.05
2022-12-11T23:39:04.949Z,73.43
2022-12-11T23:44:06.264Z,73.62
2022-12-11T23:49:07.502Z,72.78
2022-12-11T23:54:08.764Z,73.29
2022-12-11T23:59:10.054Z,73.98
